Time;durP1;ratioP1;P1;durP2;ratioP2;P2;SDS_P1;SDS_P2;PMS_P1;PMS_P2;Temp;Humidity;BMP_temperature;BMP_pressure;BME280_temperature;BME280_humidity;BME280_pressure;Samples;Min_cycle;Max_cycle;Signal;HPM_P1;HPM_P2
2022/10/01 00:00:18;;;;;;;0.30;0.20;;;8.20;99.90;;;;;;5033751;28;20202;-64
2022/10/01 00:02:44;;;;;;;0.00;0.00;;;8.30;99.90;;;;;;5036855;28;20209;-64
2022/10/01 00:05:10;;;;;;;0.10;0.10;;;8.40;99.90;;;;;;5038621;28;20664;-64
2022/10/01 00:07:40;;;;;;;0.10;0.10;;;8.40;99.90;;;;;;5031832;28;20180;-65
2022/10/01 00:10:06;;;;;;;0.00;0.00;;;8.50;99.90;;;;;;5049810;28;20243;-63
2022/10/01 00:12:33;;;;;;;0.20;0.13;;;8.60;99.90;;;;;;5046246;28;20185;-64
2022/10/01 00:14:59;;;;;;;0.13;0.13;;;8.70;99.90;;;;;;5037400;28;20260;-64
2022/10/01 00:17:25;;;;;;;0.00;0.00;;;8.70;99.90;;;;;;5031899;28;20170;-64
2022/10/01 00:19:50;;;;;;;0.30;0.13;;;8.80;99.90;;;;;;5037557;28;20177;-64
2022/10/01 00:22:17;;;;;;;0.00;0.00;;;8.80;99.90;;;;;;5048028;28;20702;-64
2022/10/01 00:24:44;;;;;;;0.17;0.17;;;8.90;99.90;;;;;;5048782;28;20178;-65
2022/10/01 00:27:11;;;;;;;0.00;0.00;;;8.90;99.90;;;;;;5034393;28;20185;-65
2022/10/01 00:29:37;;;;;;;0.10;0.10;;;9.00;99.90;;;;;;5043506;28;20203;-65
2022/10/01 00:32:02;;;;;;;0.10;0.10;;;9.00;99.90;;;;;;5031550;28;20587;-65
2022/10/01 00:34:28;;;;;;;0.10;0.10;;;9.00;99.90;;;;;;5038058;28;20213;-64
2022/10/01 00:36:53;;;;;;;0.00;0.00;;;9.00;99.90;;;;;;5049673;28;20180;-65
2022/10/01 00:39:19;;;;;;;0.08;0.08;;;9.10;99.90;;;;;;5038483;28;20232;-64
2022/10/01 00:41:45;;;;;;;0.10;0.10;;;9.10;99.90;;;;;;5042493;28;20202;-65
2022/10/01 00:44:34;;;;;;;0.00;0.00;;;9.10;99.90;;;;;;5046397;28;20178;-64
2022/10/01 00:47:21;;;;;;;0.00;0.00;;;9.10;99.90;;;;;;5040221;28;20223;-65
2022/10/01 00:49:49;;;;;;;0.00;0.00;;;9.20;99.90;;;;;;5045431;28;20212;-64
2022/10/01 00:52:23;;;;;;;0.00;0.00;;;9.20;99.90;;;;;;5036363;28;20664;-64
2022/10/01 00:54:59;;;;;;;0.20;0.20;;;9.20;99.90;;;;;;5034657;28;20209;-64
2022/10/01 00:57:26;;;;;;;0.08;0.08;;;9.20;99.90;;;;;;5020467;28;20652;-64
2022/10/01 00:59:53;;;;;;;0.05;0.05;;;9.20;99.90;;;;;;5032596;28;20208;-64
2022/10/01 01:02:19;;;;;;;0.00;0.00;;;9.20;99.90;;;;;;5034391;28;20264;-64
2022/10/01 01:04:44;;;;;;;0.00;0.00;;;9.20;99.90;;;;;;5042916;28;20308;-65
2022/10/01 01:07:11;;;;;;;0.00;0.00;;;9.20;99.90;;;;;;5051014;28;20170;-64
2022/10/01 01:09:42;;;;;;;0.00;0.00;;;9.20;99.90;;;;;;5043044;28;20273;-65
2022/10/01 01:12:33;;;;;;;0.13;0.13;;;9.30;99.90;;;;;;5049919;28;20173;-64
2022/10/01 01:15:20;;;;;;;0.00;0.00;;;9.30;99.90;;;;;;5025357;28;20692;-64
2022/10/01 01:18:04;;;;;;;0.00;0.00;;;9.40;99.90;;;;;;5019849;28;20189;-64
2022/10/01 01:20:47;;;;;;;0.10;0.10;;;9.40;99.90;;;;;;5030671;28;20211;-64
2022/10/01 01:23:16;;;;;;;0.10;0.10;;;9.50;99.90;;;;;;5037049;28;20555;-64
2022/10/01 01:26:00;;;;;;;0.22;0.22;;;9.50;99.90;;;;;;5037239;28;20236;-65
2022/10/01 01:28:37;;;;;;;0.10;0.10;;;9.60;99.90;;;;;;5035753;28;20216;-64
2022/10/01 01:31:14;;;;;;;0.10;0.10;;;9.60;99.90;;;;;;5045713;28;20599;-65
2022/10/01 01:33:42;;;;;;;0.13;0.13;;;9.60;99.90;;;;;;5051565;28;20200;-65
2022/10/01 01:36:18;;;;;;;0.00;0.00;;;9.70;99.90;;;;;;5039191;28;20684;-65
2022/10/01 01:38:48;;;;;;;0.00;0.00;;;9.70;99.90;;;;;;5042089;28;20256;-65
2022/10/01 01:41:15;;;;;;;0.00;0.00;;;9.80;99.90;;;;;;5045464;28;20549;-65
2022/10/01 01:43:44;;;;;;;0.03;0.03;;;9.80;99.90;;;;;;5037056;28;20189;-64
2022/10/01 01:46:13;;;;;;;0.00;0.00;;;9.80;99.90;;;;;;5034361;28;20181;-65
2022/10/01 01:48:40;;;;;;;0.00;0.00;;;9.80;99.90;;;;;;5049557;28;20534;-65
2022/10/01 01:51:34;;;;;;;0.00;0.00;;;9.90;99.90;;;;;;5018876;28;20177;-65
2022/10/01 01:54:00;;;;;;;0.10;0.10;;;9.90;99.90;;;;;;5042878;28;20217;-65
2022/10/01 01:56:25;;;;;;;0.00;0.00;;;9.90;99.90;;;;;;5039750;28;20178;-65
2022/10/01 01:58:52;;;;;;;0.00;0.00;;;9.90;99.90;;;;;;5036935;28;20187;-65
2022/10/01 02:01:31;;;;;;;0.00;0.00;;;9.90;99.90;;;;;;5048128;28;20208;-64
2022/10/01 02:03:57;;;;;;;0.00;0.00;;;9.90;99.90;;;;;;5046663;28;20231;-64
2022/10/01 02:06:39;;;;;;;0.08;0.08;;;10.00;99.90;;;;;;5049501;28;20182;-65
2022/10/01 02:09:32;;;;;;;0.08;0.08;;;10.00;99.90;;;;;;5047485;28;20185;-65
2022/10/01 02:12:25;;;;;;;0.00;0.00;;;10.00;99.90;;;;;;5046352;28;20186;-65
2022/10/01 02:14:53;;;;;;;0.10;0.10;;;10.10;99.90;;;;;;5018313;28;20550;-64
2022/10/01 02:17:31;;;;;;;0.00;0.00;;;10.10;99.90;;;;;;5042770;28;20174;-65
2022/10/01 02:20:06;;;;;;;0.10;0.10;;;10.10;99.90;;;;;;5041632;28;20217;-65
2022/10/01 02:22:46;;;;;;;0.20;0.20;;;10.20;99.90;;;;;;5041367;28;20188;-65
2022/10/01 02:25:16;;;;;;;0.10;0.10;;;10.20;99.90;;;;;;5040946;28;20215;-64
2022/10/01 02:27:54;;;;;;;0.00;0.00;;;10.20;99.90;;;;;;5049737;28;20186;-65
2022/10/01 02:30:20;;;;;;;0.10;0.10;;;10.20;99.90;;;;;;5051580;28;20547;-65
2022/10/01 02:32:49;;;;;;;0.05;0.05;;;10.20;99.90;;;;;;5040008;28;20178;-65
2022/10/01 02:35:17;;;;;;;0.08;0.08;;;10.20;99.90;;;;;;5041541;28;20215;-65
2022/10/01 02:37:44;;;;;;;0.00;0.00;;;10.20;99.90;;;;;;5042405;28;20177;-65
2022/10/01 02:40:15;;;;;;;0.00;0.00;;;10.20;99.90;;;;;;5031333;28;20192;-64
2022/10/01 02:42:48;;;;;;;0.00;0.00;;;10.20;99.90;;;;;;5034862;28;20221;-65
2022/10/01 02:45:21;;;;;;;0.00;0.00;;;10.20;99.90;;;;;;5049889;28;20185;-65
2022/10/01 02:47:56;;;;;;;0.00;0.00;;;10.20;99.90;;;;;;5033097;28;20182;-65
2022/10/01 02:50:25;;;;;;;0.00;0.00;;;10.20;99.90;;;;;;5045450;28;20645;-64
2022/10/01 02:52:52;;;;;;;0.00;0.00;;;10.20;99.90;;;;;;5042413;28;20232;-64
2022/10/01 02:55:28;;;;;;;0.30;0.30;;;10.20;99.90;;;;;;5037563;28;20217;-64
2022/10/01 02:57:54;;;;;;;0.10;0.10;;;10.20;99.90;;;;;;5046404;28;20261;-65
2022/10/01 03:00:20;;;;;;;0.00;0.00;;;10.20;99.90;;;;;;5041530;28;20538;-64
2022/10/01 03:02:47;;;;;;;0.00;0.00;;;10.20;99.90;;;;;;5041222;28;20217;-64
2022/10/01 03:05:14;;;;;;;0.00;0.00;;;10.20;99.90;;;;;;5036039;28;20177;-64
2022/10/01 03:07:39;;;;;;;0.00;0.00;;;10.20;99.90;;;;;;5035689;28;20210;-65
2022/10/01 03:10:07;;;;;;;0.00;0.00;;;10.20;99.90;;;;;;5048738;28;20668;-64
2022/10/01 03:12:33;;;;;;;0.00;0.00;;;10.30;99.90;;;;;;5035210;28;20541;-64
2022/10/01 03:14:59;;;;;;;0.00;0.00;;;10.30;99.90;;;;;;5042440;28;20212;-64
2022/10/01 03:17:25;;;;;;;0.00;0.00;;;10.30;99.90;;;;;;5036022;28;20525;-64
2022/10/01 03:19:51;;;;;;;0.00;0.00;;;10.30;99.90;;;;;;5050518;28;20260;-64
2022/10/01 03:22:21;;;;;;;0.55;0.52;;;10.30;99.90;;;;;;5044552;28;20698;-64
2022/10/01 03:24:49;;;;;;;0.00;0.00;;;10.20;99.90;;;;;;5048693;28;20186;-64
2022/10/01 03:27:16;;;;;;;0.00;0.00;;;10.30;99.90;;;;;;5049342;28;20575;-64
2022/10/01 03:29:42;;;;;;;0.00;0.00;;;10.20;99.90;;;;;;5048797;28;20251;-64
2022/10/01 03:32:07;;;;;;;0.00;0.00;;;10.20;99.90;;;;;;5041657;28;20179;-64
2022/10/01 03:34:33;;;;;;;0.00;0.00;;;10.20;99.90;;;;;;5048068;28;20213;-65
2022/10/01 03:36:58;;;;;;;0.10;0.10;;;10.20;99.90;;;;;;5037894;28;20189;-64
2022/10/01 03:39:24;;;;;;;0.00;0.00;;;10.20;99.90;;;;;;5046709;28;20181;-64
2022/10/01 03:41:49;;;;;;;0.10;0.10;;;10.10;99.90;;;;;;5042009;28;20510;-64
2022/10/01 03:44:15;;;;;;;0.00;0.00;;;10.20;99.90;;;;;;5042320;28;20779;-64
2022/10/01 03:46:40;;;;;;;0.00;0.00;;;10.10;99.90;;;;;;5041722;28;20203;-65
2022/10/01 03:49:06;;;;;;;0.00;0.00;;;10.20;99.90;;;;;;5039447;28;20170;-65
2022/10/01 03:51:32;;;;;;;0.00;0.00;;;10.10;99.90;;;;;;5039649;28;20218;-65
2022/10/01 03:53:58;;;;;;;0.45;0.45;;;10.10;99.90;;;;;;5041473;28;20525;-64
2022/10/01 03:56:25;;;;;;;0.00;0.00;;;10.10;99.90;;;;;;5036908;28;20246;-64
2022/10/01 03:58:50;;;;;;;0.00;0.00;;;10.20;99.90;;;;;;5047281;28;20186;-64
2022/10/01 04:01:16;;;;;;;0.00;0.00;;;10.20;99.90;;;;;;5037334;28;20174;-64
2022/10/01 04:03:42;;;;;;;0.00;0.00;;;10.20;99.90;;;;;;5042114;28;20776;-64
2022/10/01 04:06:08;;;;;;;0.00;0.00;;;10.20;99.90;;;;;;5050489;28;20185;-64
2022/10/01 04:08:36;;;;;;;0.10;0.10;;;10.20;99.90;;;;;;5045041;28;20197;-64
2022/10/01 04:11:02;;;;;;;0.00;0.00;;;10.20;99.90;;;;;;5033024;28;20234;-64
2022/10/01 04:13:28;;;;;;;0.00;0.00;;;10.20;99.90;;;;;;5038625;28;20675;-64
2022/10/01 04:15:54;;;;;;;0.00;0.00;;;10.20;99.90;;;;;;5031790;28;20213;-64
2022/10/01 04:18:20;;;;;;;0.00;0.00;;;10.20;99.90;;;;;;5039328;28;20252;-64
2022/10/01 04:20:46;;;;;;;0.00;0.00;;;10.30;99.90;;;;;;5045230;28;20661;-65
2022/10/01 04:23:12;;;;;;;0.00;0.00;;;10.30;99.90;;;;;;5047173;28;20190;-64
2022/10/01 04:25:38;;;;;;;0.00;0.00;;;10.30;99.90;;;;;;5048918;28;20182;-65
2022/10/01 04:28:05;;;;;;;0.10;0.10;;;10.30;99.90;;;;;;5035547;28;20197;-64
2022/10/01 04:30:34;;;;;;;0.00;0.00;;;10.30;99.90;;;;;;5031822;28;20664;-64
2022/10/01 04:33:00;;;;;;;0.03;0.03;;;10.30;99.90;;;;;;5043504;28;20182;-64
2022/10/01 04:35:26;;;;;;;0.00;0.00;;;10.30;99.90;;;;;;5041812;28;20268;-64
2022/10/01 04:37:57;;;;;;;0.05;0.05;;;10.30;99.90;;;;;;5035059;28;20190;-64
2022/10/01 04:40:22;;;;;;;0.10;0.10;;;10.30;99.90;;;;;;5045756;28;20189;-64
2022/10/01 04:42:48;;;;;;;0.00;0.00;;;10.40;99.90;;;;;;5037128;28;20550;-64
2022/10/01 04:45:13;;;;;;;0.00;0.00;;;10.40;99.90;;;;;;5046080;28;20185;-64
2022/10/01 04:47:48;;;;;;;0.00;0.00;;;10.40;99.90;;;;;;5044893;28;20174;-65
2022/10/01 04:50:15;;;;;;;0.13;0.13;;;10.40;99.90;;;;;;5045177;28;20182;-64
2022/10/01 04:52:41;;;;;;;0.00;0.00;;;10.40;99.90;;;;;;5051382;28;20185;-64
2022/10/01 04:55:07;;;;;;;0.00;0.00;;;10.50;99.90;;;;;;5052615;28;20695;-64
2022/10/01 04:57:34;;;;;;;0.00;0.00;;;10.50;99.90;;;;;;5038850;28;20222;-64
2022/10/01 05:00:00;;;;;;;0.10;0.10;;;10.50;99.90;;;;;;5035322;28;20189;-65
2022/10/01 05:02:28;;;;;;;0.00;0.00;;;10.50;99.90;;;;;;5054653;28;20185;-64
2022/10/01 05:04:54;;;;;;;0.00;0.00;;;10.60;99.90;;;;;;5042609;28;20572;-65
2022/10/01 05:07:21;;;;;;;0.00;0.00;;;10.60;99.90;;;;;;5053203;28;20186;-64
2022/10/01 05:09:47;;;;;;;0.00;0.00;;;10.60;99.90;;;;;;5045720;28;20178;-64
2022/10/01 05:12:13;;;;;;;0.00;0.00;;;10.60;99.90;;;;;;5035851;28;20186;-65
2022/10/01 05:14:38;;;;;;;0.00;0.00;;;10.60;99.90;;;;;;5049483;28;20209;-64
2022/10/01 05:17:06;;;;;;;0.00;0.00;;;10.70;99.90;;;;;;5054908;28;20256;-64
2022/10/01 05:19:32;;;;;;;0.00;0.00;;;10.70;99.90;;;;;;5039637;28;20231;-64
2022/10/01 05:21:58;;;;;;;0.00;0.00;;;10.70;99.90;;;;;;5054654;28;20517;-64
2022/10/01 05:24:24;;;;;;;0.00;0.00;;;10.70;99.90;;;;;;5042463;28;20236;-64
2022/10/01 05:26:49;;;;;;;0.00;0.00;;;10.70;99.90;;;;;;5037136;28;20697;-64
2022/10/01 05:29:16;;;;;;;0.00;0.00;;;10.70;99.90;;;;;;5051078;28;20269;-64
2022/10/01 05:31:43;;;;;;;0.00;0.00;;;10.70;99.90;;;;;;5052190;28;20668;-64
2022/10/01 05:34:08;;;;;;;0.00;0.00;;;10.70;99.90;;;;;;5049372;28;20699;-64
2022/10/01 05:36:34;;;;;;;0.00;0.00;;;10.70;99.90;;;;;;5033797;28;20276;-64
2022/10/01 05:39:00;;;;;;;0.00;0.00;;;10.70;99.90;;;;;;5035507;28;20560;-64
2022/10/01 05:41:25;;;;;;;0.00;0.00;;;10.60;99.90;;;;;;5045652;28;20189;-64
2022/10/01 05:43:51;;;;;;;0.00;0.00;;;10.60;99.90;;;;;;5048715;28;20315;-64
2022/10/01 05:46:16;;;;;;;0.00;0.00;;;10.60;99.90;;;;;;5048562;28;20177;-64
2022/10/01 05:48:42;;;;;;;0.00;0.00;;;10.60;99.90;;;;;;5050946;28;20206;-64
2022/10/01 05:51:08;;;;;;;0.00;0.00;;;10.60;99.90;;;;;;5045083;28;20645;-64
2022/10/01 05:53:37;;;;;;;0.00;0.00;;;10.50;99.90;;;;;;5052101;28;20177;-64
2022/10/01 05:56:04;;;;;;;0.10;0.10;;;10.50;99.90;;;;;;5045876;28;20182;-64
2022/10/01 05:58:30;;;;;;;0.00;0.00;;;10.50;99.90;;;;;;5039007;28;20189;-64
2022/10/01 06:00:55;;;;;;;0.00;0.00;;;10.50;99.90;;;;;;5037371;28;20177;-64
2022/10/01 06:03:21;;;;;;;0.00;0.00;;;10.40;99.90;;;;;;5053963;28;20217;-64
2022/10/01 06:05:47;;;;;;;0.00;0.00;;;10.40;99.90;;;;;;5046976;28;20190;-64
2022/10/01 06:08:13;;;;;;;0.00;0.00;;;10.50;99.90;;;;;;5054017;28;20169;-63
2022/10/01 06:10:39;;;;;;;0.00;0.00;;;10.50;99.90;;;;;;5047996;28;20193;-64
2022/10/01 06:13:04;;;;;;;0.00;0.00;;;10.50;99.90;;;;;;5053770;28;20174;-64
2022/10/01 06:15:37;;;;;;;0.00;0.00;;;10.50;99.90;;;;;;5046232;28;20217;-63
2022/10/01 06:18:04;;;;;;;0.00;0.00;;;10.60;99.90;;;;;;5033766;28;20187;-63
2022/10/01 06:20:30;;;;;;;0.03;0.03;;;10.60;99.90;;;;;;5048180;28;20177;-64
2022/10/01 06:22:56;;;;;;;0.50;0.50;;;10.60;99.90;;;;;;5053635;28;20328;-63
2022/10/01 06:25:23;;;;;;;0.15;0.15;;;10.60;99.90;;;;;;5039444;28;20186;-63
2022/10/01 06:27:55;;;;;;;0.10;0.10;;;10.60;99.90;;;;;;5037099;28;20186;-63
2022/10/01 06:30:21;;;;;;;0.00;0.00;;;10.60;99.90;;;;;;5033671;28;20227;-62
2022/10/01 06:32:47;;;;;;;0.00;0.00;;;10.60;99.90;;;;;;5033780;28;20174;-63
2022/10/01 06:35:13;;;;;;;0.00;0.00;;;10.60;99.90;;;;;;5040327;28;20217;-63
2022/10/01 06:37:38;;;;;;;0.00;0.00;;;10.70;99.90;;;;;;5049544;28;20181;-63
2022/10/01 06:40:06;;;;;;;0.00;0.00;;;10.70;99.90;;;;;;5046942;28;20640;-62
2022/10/01 06:42:31;;;;;;;0.00;0.00;;;10.80;99.90;;;;;;5038262;28;20186;-62
2022/10/01 06:44:57;;;;;;;0.00;0.00;;;10.80;99.90;;;;;;5044306;28;20178;-65
2022/10/01 06:47:23;;;;;;;0.00;0.00;;;10.80;99.90;;;;;;5049180;28;20177;-64
2022/10/01 06:49:48;;;;;;;0.00;0.00;;;10.80;99.90;;;;;;5040009;28;20186;-63
2022/10/01 06:55:00;;;;;;;0.00;0.00;;;10.90;99.90;;;;;;5052891;28;20686;-66
2022/10/01 06:57:26;;;;;;;0.03;0.03;;;10.90;99.90;;;;;;5036921;28;20261;-64
2022/10/01 06:59:51;;;;;;;0.00;0.00;;;10.90;99.90;;;;;;5049015;28;20576;-62
2022/10/01 07:02:27;;;;;;;0.00;0.00;;;11.00;99.90;;;;;;5052990;28;20252;-62
2022/10/01 07:04:57;;;;;;;0.00;0.00;;;11.00;99.90;;;;;;5051782;28;20189;-63
2022/10/01 07:07:30;;;;;;;0.05;0.05;;;11.00;99.90;;;;;;5043398;28;20235;-65
2022/10/01 07:09:56;;;;;;;0.00;0.00;;;11.00;99.90;;;;;;5041744;28;20702;-62
2022/10/01 07:12:22;;;;;;;0.10;0.10;;;11.00;99.90;;;;;;5047116;28;20525;-62
2022/10/01 07:14:47;;;;;;;0.00;0.00;;;11.00;99.90;;;;;;5047256;28;20296;-61
2022/10/01 07:17:13;;;;;;;0.00;0.00;;;10.90;99.90;;;;;;5034844;28;20612;-62
2022/10/01 07:19:39;;;;;;;0.00;0.00;;;10.90;99.90;;;;;;5042420;28;20193;-64
2022/10/01 07:22:04;;;;;;;0.00;0.00;;;10.90;99.90;;;;;;5052709;28;20184;-65
2022/10/01 07:24:30;;;;;;;0.00;0.00;;;10.90;99.90;;;;;;5044286;28;20193;-64
2022/10/01 07:26:55;;;;;;;0.00;0.00;;;10.90;99.90;;;;;;5039265;28;20182;-64
2022/10/01 07:29:22;;;;;;;0.00;0.00;;;10.90;99.90;;;;;;5052622;28;20645;-64
2022/10/01 07:31:49;;;;;;;0.00;0.00;;;10.90;99.90;;;;;;5047100;28;20175;-64
2022/10/01 07:34:15;;;;;;;0.00;0.00;;;10.90;99.90;;;;;;5032320;28;20244;-64
2022/10/01 07:36:44;;;;;;;0.00;0.00;;;10.90;99.90;;;;;;5035708;28;20182;-64
2022/10/01 07:39:10;;;;;;;0.00;0.00;;;10.90;99.90;;;;;;5031448;28;20185;-65
2022/10/01 07:41:36;;;;;;;0.00;0.00;;;10.90;99.90;;;;;;5046976;28;20186;-64
2022/10/01 07:44:02;;;;;;;0.00;0.00;;;11.00;99.90;;;;;;5052343;28;20188;-64
2022/10/01 07:46:28;;;;;;;0.00;0.00;;;11.00;99.90;;;;;;5042681;28;20186;-64
2022/10/01 07:48:54;;;;;;;0.00;0.00;;;11.10;99.90;;;;;;5032212;28;20212;-64
2022/10/01 07:51:19;;;;;;;0.00;0.00;;;11.10;99.90;;;;;;5032014;28;20256;-64
2022/10/01 07:53:45;;;;;;;0.10;0.10;;;11.20;99.90;;;;;;5032335;28;20169;-64
2022/10/01 07:56:11;;;;;;;0.00;0.00;;;11.20;99.90;;;;;;5032175;28;20260;-64
2022/10/01 07:58:36;;;;;;;0.00;0.00;;;11.20;99.90;;;;;;5032219;28;20178;-64
2022/10/01 08:01:05;;;;;;;0.00;0.00;;;11.30;99.90;;;;;;5032171;28;20189;-64
2022/10/01 08:03:30;;;;;;;0.00;0.00;;;11.30;99.90;;;;;;5031596;28;20214;-65
2022/10/01 08:05:56;;;;;;;0.00;0.00;;;11.40;99.90;;;;;;5031718;28;20255;-64
2022/10/01 08:08:22;;;;;;;0.00;0.00;;;11.40;99.90;;;;;;5031665;28;20257;-64
2022/10/01 08:10:49;;;;;;;0.10;0.10;;;11.40;99.90;;;;;;5031716;28;20201;-64
2022/10/01 08:13:16;;;;;;;0.00;0.00;;;11.40;99.90;;;;;;5030626;28;20174;-64
2022/10/01 08:15:43;;;;;;;0.00;0.00;;;11.30;99.90;;;;;;5031623;28;20309;-65
2022/10/01 08:18:10;;;;;;;0.00;0.00;;;11.30;99.90;;;;;;5031578;28;20650;-65
2022/10/01 08:20:36;;;;;;;0.00;0.00;;;11.30;99.90;;;;;;5032628;28;20521;-65
2022/10/01 08:23:06;;;;;;;0.10;0.10;;;11.20;99.90;;;;;;5036377;28;20583;-65
2022/10/01 08:25:32;;;;;;;0.00;0.00;;;11.20;99.90;;;;;;5038374;28;20208;-65
2022/10/01 08:28:01;;;;;;;0.15;0.10;;;11.20;99.90;;;;;;5035920;28;20170;-64
2022/10/01 08:30:28;;;;;;;0.00;0.00;;;11.20;99.90;;;;;;5035617;28;20408;-64
2022/10/01 08:32:58;;;;;;;0.05;0.05;;;11.20;99.90;;;;;;5035204;28;20186;-65
2022/10/01 08:35:25;;;;;;;0.00;0.00;;;11.20;99.90;;;;;;5035095;28;20245;-65
2022/10/01 08:37:51;;;;;;;0.17;0.17;;;11.20;99.90;;;;;;5035148;28;20178;-65
2022/10/01 08:40:19;;;;;;;0.00;0.00;;;11.20;99.90;;;;;;5035356;28;20545;-64
2022/10/01 08:42:51;;;;;;;0.00;0.00;;;11.20;99.90;;;;;;5016120;28;20546;-65
2022/10/01 08:45:25;;;;;;;0.00;0.00;;;11.20;99.90;;;;;;5030440;28;20183;-65
2022/10/01 08:48:00;;;;;;;0.00;0.00;;;11.20;99.90;;;;;;5037986;28;20637;-65
2022/10/01 08:50:35;;;;;;;0.00;0.00;;;11.30;99.90;;;;;;5035235;28;20173;-65
2022/10/01 08:53:05;;;;;;;0.00;0.00;;;11.30;99.90;;;;;;5035210;28;20186;-65
2022/10/01 08:55:35;;;;;;;0.00;0.00;;;11.40;99.90;;;;;;5036454;28;20221;-62
2022/10/01 08:58:04;;;;;;;0.00;0.00;;;11.40;99.90;;;;;;5038919;28;20180;-65
2022/10/01 09:00:32;;;;;;;0.00;0.00;;;11.40;99.90;;;;;;5051675;28;20220;-64
2022/10/01 09:03:03;;;;;;;0.00;0.00;;;11.40;99.90;;;;;;5039912;28;20726;-64
2022/10/01 09:05:37;;;;;;;0.00;0.00;;;11.40;99.90;;;;;;5039676;28;20204;-64
2022/10/01 09:08:14;;;;;;;0.00;0.00;;;11.40;99.90;;;;;;5037731;28;20177;-64
2022/10/01 09:10:42;;;;;;;0.00;0.00;;;11.50;99.90;;;;;;5035916;28;20663;-64
2022/10/01 09:13:26;;;;;;;0.03;0.03;;;11.50;99.90;;;;;;5041301;28;20186;-63
2022/10/01 09:15:57;;;;;;;0.00;0.00;;;11.50;99.90;;;;;;5035778;28;20206;-64
2022/10/01 09:19:00;;;;;;;0.00;0.00;;;11.40;99.90;;;;;;5047120;28;20257;-63
2022/10/01 09:21:54;;;;;;;0.00;0.00;;;11.50;99.90;;;;;;5039688;28;20220;-63
2022/10/01 09:24:44;;;;;;;0.00;0.00;;;11.40;99.90;;;;;;5021854;28;20707;-63
2022/10/01 09:27:27;;;;;;;0.00;0.00;;;11.40;99.90;;;;;;5048854;28;20190;-63
2022/10/01 09:30:01;;;;;;;0.15;0.03;;;11.30;99.90;;;;;;5039365;28;20197;-63
2022/10/01 09:32:40;;;;;;;0.20;0.20;;;11.30;99.90;;;;;;5034490;28;20182;-63
2022/10/01 09:35:34;;;;;;;0.00;0.00;;;11.30;99.90;;;;;;5048853;28;20228;-63
2022/10/01 09:38:10;;;;;;;0.00;0.00;;;11.30;99.90;;;;;;5015046;28;20191;-64
2022/10/01 09:40:51;;;;;;;0.68;0.35;;;11.30;99.90;;;;;;5036207;28;20711;-64
2022/10/01 09:43:20;;;;;;;0.00;0.00;;;11.30;99.90;;;;;;5053785;28;20211;-63
2022/10/01 09:45:46;;;;;;;0.20;0.10;;;11.30;99.90;;;;;;5050717;28;20182;-64
2022/10/01 09:48:20;;;;;;;0.00;0.00;;;11.30;99.90;;;;;;5037681;28;20183;-63
2022/10/01 09:50:53;;;;;;;0.00;0.00;;;11.30;99.90;;;;;;5050587;28;20186;-64
2022/10/01 09:53:25;;;;;;;0.00;0.00;;;11.30;99.90;;;;;;5034289;28;20186;-63
2022/10/01 09:55:57;;;;;;;0.00;0.00;;;11.40;99.90;;;;;;5040156;28;20209;-63
2022/10/01 09:58:25;;;;;;;0.00;0.00;;;11.40;99.90;;;;;;5048100;28;20654;-63
2022/10/01 10:00:53;;;;;;;0.00;0.00;;;11.40;99.90;;;;;;5050863;28;20583;-63
2022/10/01 10:03:26;;;;;;;0.00;0.00;;;11.40;99.90;;;;;;5036968;28;20276;-63
2022/10/01 10:05:52;;;;;;;0.00;0.00;;;11.40;99.90;;;;;;5044017;28;20181;-64
2022/10/01 10:08:34;;;;;;;0.00;0.00;;;11.50;99.90;;;;;;5053871;28;20185;-64
2022/10/01 10:11:09;;;;;;;0.10;0.10;;;11.50;99.90;;;;;;5050210;28;20300;-63
2022/10/01 10:13:40;;;;;;;0.00;0.00;;;11.50;99.90;;;;;;5043783;28;20659;-63
2022/10/01 10:16:12;;;;;;;0.20;0.20;;;11.60;99.90;;;;;;5037040;28;20186;-63
2022/10/01 10:18:39;;;;;;;0.00;0.00;;;11.60;99.90;;;;;;5053771;28;20247;-63
2022/10/01 10:21:13;;;;;;;0.10;0.10;;;11.60;99.90;;;;;;5051379;28;20188;-63
2022/10/01 10:23:57;;;;;;;0.00;0.00;;;11.60;99.90;;;;;;5033952;28;20209;-63
2022/10/01 10:26:53;;;;;;;0.00;0.00;;;11.70;99.90;;;;;;5047839;28;20208;-63
2022/10/01 10:29:29;;;;;;;0.00;0.00;;;11.80;99.90;;;;;;5023223;28;20194;-63
2022/10/01 10:31:56;;;;;;;0.00;0.00;;;11.80;99.90;;;;;;5053007;28;20185;-63
2022/10/01 10:34:39;;;;;;;0.00;0.00;;;11.90;99.90;;;;;;5053209;28;20232;-62
2022/10/01 10:37:13;;;;;;;0.00;0.00;;;12.00;99.90;;;;;;5013786;28;20193;-63
2022/10/01 10:39:43;;;;;;;0.00;0.00;;;12.00;99.90;;;;;;5019200;28;20182;-64
2022/10/01 10:42:14;;;;;;;0.00;0.00;;;12.10;99.90;;;;;;5041053;28;20181;-64
2022/10/01 10:44:42;;;;;;;0.00;0.00;;;12.10;99.90;;;;;;5035677;28;20174;-64
2022/10/01 10:47:13;;;;;;;0.10;0.10;;;12.20;99.90;;;;;;5020907;28;20181;-63
2022/10/01 10:50:01;;;;;;;0.00;0.00;;;12.20;99.90;;;;;;5045967;28;20176;-64
2022/10/01 10:52:34;;;;;;;0.00;0.00;;;12.20;99.90;;;;;;5020035;28;20174;-64
2022/10/01 10:55:16;;;;;;;0.10;0.10;;;12.30;99.90;;;;;;5033743;28;20248;-64
2022/10/01 10:57:41;;;;;;;0.00;0.00;;;12.40;99.90;;;;;;5048289;28;20216;-64
2022/10/01 11:00:19;;;;;;;0.00;0.00;;;12.50;99.90;;;;;;5032996;28;20201;-64
2022/10/01 11:02:50;;;;;;;0.00;0.00;;;12.70;99.90;;;;;;5043044;28;20217;-65
2022/10/01 11:05:22;;;;;;;0.00;0.00;;;12.80;99.90;;;;;;5050235;28;20192;-64
2022/10/01 11:07:52;;;;;;;0.00;0.00;;;12.90;99.90;;;;;;5032871;28;20638;-64
2022/10/01 11:11:00;;;;;;;0.00;0.00;;;13.00;99.90;;;;;;5037546;28;20645;-64
2022/10/01 11:13:41;;;;;;;0.00;0.00;;;13.00;99.90;;;;;;5037861;28;20190;-64
2022/10/01 11:16:54;;;;;;;0.00;0.00;;;13.10;99.90;;;;;;5048982;28;20804;-64
2022/10/01 11:19:48;;;;;;;0.00;0.00;;;13.20;99.90;;;;;;5028766;28;20194;-63
2022/10/01 11:22:27;;;;;;;0.00;0.00;;;13.10;99.90;;;;;;5046738;28;20190;-63
2022/10/01 11:24:52;;;;;;;0.00;0.00;;;13.10;99.90;;;;;;5033849;28;20189;-63
2022/10/01 11:27:43;;;;;;;0.00;0.00;;;13.00;99.90;;;;;;5032383;28;20543;-64
2022/10/01 11:30:27;;;;;;;0.00;0.00;;;13.00;99.90;;;;;;5018116;28;20664;-63
2022/10/01 11:33:19;;;;;;;0.00;0.00;;;13.00;99.90;;;;;;5036808;28;20209;-63
2022/10/01 11:36:10;;;;;;;0.00;0.00;;;12.90;99.90;;;;;;5043186;28;20252;-64
2022/10/01 11:38:47;;;;;;;0.00;0.00;;;12.90;99.90;;;;;;5052449;28;20181;-64
2022/10/01 11:41:17;;;;;;;0.00;0.00;;;12.90;99.90;;;;;;5046798;28;20544;-63
2022/10/01 11:43:58;;;;;;;0.00;0.00;;;12.90;99.90;;;;;;5035864;28;20242;-64
2022/10/01 11:46:28;;;;;;;0.00;0.00;;;12.90;99.90;;;;;;5046437;28;20240;-64
2022/10/01 11:49:01;;;;;;;0.38;0.30;;;12.80;99.90;;;;;;5048393;28;20186;-64
2022/10/01 11:51:33;;;;;;;0.00;0.00;;;12.90;99.90;;;;;;5037893;28;20269;-63
2022/10/01 11:54:05;;;;;;;0.00;0.00;;;12.90;99.90;;;;;;5041552;28;20205;-63
2022/10/01 11:59:30;;;;;;;0.00;0.00;;;13.10;99.90;;;;;;5052157;28;20223;-64
2022/10/01 12:02:18;;;;;;;0.00;0.00;;;13.20;99.90;;;;;;5035282;28;20185;-63
2022/10/01 12:05:15;;;;;;;0.00;0.00;;;13.30;99.90;;;;;;5036452;28;20220;-64
2022/10/01 12:07:54;;;;;;;0.00;0.00;;;13.30;99.90;;;;;;5050165;28;20184;-63
2022/10/01 12:10:43;;;;;;;0.00;0.00;;;13.40;99.90;;;;;;5044094;28;20177;-63
2022/10/01 12:13:14;;;;;;;0.00;0.00;;;13.40;99.90;;;;;;5032120;28;20185;-62
2022/10/01 12:16:05;;;;;;;0.00;0.00;;;13.50;99.90;;;;;;5031926;28;20214;-63
2022/10/01 12:19:04;;;;;;;0.00;0.00;;;13.60;99.90;;;;;;5032141;28;20197;-63
2022/10/01 12:21:37;;;;;;;0.00;0.00;;;13.80;99.90;;;;;;5031968;28;20208;-63
2022/10/01 12:24:41;;;;;;;0.00;0.00;;;13.90;99.90;;;;;;5032014;28;20197;-63
2022/10/01 12:27:33;;;;;;;0.00;0.00;;;14.00;99.90;;;;;;5009757;28;20262;-63
2022/10/01 12:30:07;;;;;;;0.00;0.00;;;13.90;99.90;;;;;;5031431;28;20190;-63
2022/10/01 12:33:04;;;;;;;0.52;0.30;;;13.90;99.90;;;;;;5045592;28;20177;-63
2022/10/01 12:35:47;;;;;;;0.60;0.60;;;14.00;99.90;;;;;;5031411;28;20564;-64
2022/10/01 12:38:41;;;;;;;0.40;0.40;;;14.60;99.90;;;;;;5030739;28;20183;-64
2022/10/01 12:41:28;;;;;;;0.80;0.40;;;14.90;99.90;;;;;;5022666;28;20192;-63
2022/10/01 12:44:26;;;;;;;0.28;0.28;;;15.20;99.90;;;;;;5031592;28;20170;-63
2022/10/01 12:47:15;;;;;;;0.10;0.10;;;15.30;99.90;;;;;;5012126;28;20793;-62
2022/10/01 12:49:52;;;;;;;0.08;0.08;;;15.20;99.90;;;;;;5012139;28;20263;-62
2022/10/01 12:52:32;;;;;;;0.82;0.73;;;15.20;99.90;;;;;;5012016;28;20304;-63
2022/10/01 12:55:16;;;;;;;0.00;0.00;;;15.60;99.90;;;;;;5019674;28;20559;-62
2022/10/01 12:58:11;;;;;;;0.00;0.00;;;15.60;99.90;;;;;;5031495;28;20223;-62
2022/10/01 13:00:55;;;;;;;0.00;0.00;;;15.40;99.90;;;;;;5031784;28;20223;-61
2022/10/01 13:03:58;;;;;;;0.00;0.00;;;15.40;99.90;;;;;;5031404;28;20229;-61
2022/10/01 13:06:52;;;;;;;0.00;0.00;;;15.50;99.90;;;;;;5031905;28;20235;-63
2022/10/01 13:09:33;;;;;;;0.00;0.00;;;15.30;99.90;;;;;;5035319;28;20189;-62
2022/10/01 13:12:07;;;;;;;0.88;0.20;;;15.50;99.90;;;;;;5035464;28;20185;-61
2022/10/01 13:14:33;;;;;;;0.00;0.00;;;15.50;99.90;;;;;;5035163;28;20672;-62
2022/10/01 13:16:59;;;;;;;0.00;0.00;;;15.30;99.90;;;;;;5036746;28;20186;-62